Time;durP1;ratioP1;P1;durP2;ratioP2;P2;SDS_P1;SDS_P2;PMS_P1;PMS_P2;Temp;Humidity;BMP_temperature;BMP_pressure;BME280_temperature;BME280_humidity;BME280_pressure;Samples;Min_cycle;Max_cycle;Signal;HPM_P1;HPM_P2
2021/05/03 00:01:52;;;;;;;4.25;3.75;;;;;;;7.06;58.39;100894.38;5062970;28;20107;-80
2021/05/03 00:04:19;;;;;;;5.80;3.63;;;;;;;7.03;58.38;100891.81;5062610;28;20104;-80
2021/05/03 00:06:45;;;;;;;5.25;4.35;;;;;;;7.03;58.27;100883.94;5061716;28;20060;-79
2021/05/03 00:09:12;;;;;;;4.72;3.92;;;;;;;7.04;58.07;100893.56;5067592;28;20104;-79
2021/05/03 00:11:38;;;;;;;4.40;3.97;;;;;;;7.06;57.90;100894.38;5056130;28;20085;-80
2021/05/03 00:14:04;;;;;;;4.65;4.05;;;;;;;7.03;58.01;100889.19;5070722;28;20137;-79
2021/05/03 00:16:31;;;;;;;6.65;3.80;;;;;;;7.00;58.11;100889.25;5068555;28;20132;-79
2021/05/03 00:18:57;;;;;;;6.38;3.70;;;;;;;6.97;58.41;100889.31;5066157;28;20041;-79
2021/05/03 00:21:24;;;;;;;5.82;3.72;;;;;;;6.95;58.48;100888.50;5068378;28;20036;-80
2021/05/03 00:23:50;;;;;;;4.70;3.67;;;;;;;6.98;58.05;100893.69;5059847;28;20140;-80
2021/05/03 00:26:16;;;;;;;5.07;4.30;;;;;;;6.98;58.17;100886.66;5054237;28;20075;-80
2021/05/03 00:28:42;;;;;;;6.88;4.38;;;;;;;6.93;58.27;100892.94;5048923;28;20547;-81
2021/05/03 00:31:09;;;;;;;5.10;3.75;;;;;;;6.95;58.36;100885.88;5060439;28;20055;-81
2021/05/03 00:33:36;;;;;;;8.05;4.63;;;;;;;6.95;58.30;100886.72;5055879;28;20076;-81
2021/05/03 00:36:03;;;;;;;6.25;4.50;;;;;;;6.96;58.29;100898.13;5039778;28;20079;-81
2021/05/03 00:38:32;;;;;;;6.90;4.17;;;;;;;6.96;58.38;100893.72;5049083;28;20039;-81
2021/05/03 00:40:59;;;;;;;6.97;4.32;;;;;;;6.94;58.41;100884.13;5067930;28;20478;-81
2021/05/03 00:43:25;;;;;;;5.47;4.20;;;;;;;6.98;58.90;100891.06;5071508;28;20060;-81
2021/05/03 00:45:52;;;;;;;5.68;4.60;;;;;;;6.95;59.12;100892.00;5056595;28;20062;-82
2021/05/03 00:48:19;;;;;;;5.97;4.30;;;;;;;6.91;59.28;100887.72;5052233;28;20113;-82
2021/05/03 00:50:46;;;;;;;6.70;4.72;;;;;;;6.93;58.92;100892.94;5059688;28;20044;-82
2021/05/03 00:53:13;;;;;;;6.28;4.75;;;;;;;6.93;58.95;100892.94;5059758;28;20109;-82
2021/05/03 00:55:39;;;;;;;7.93;4.40;;;;;;;6.89;59.27;100897.44;5057942;28;20052;-81
2021/05/03 00:58:06;;;;;;;8.88;4.80;;;;;;;6.83;59.50;100887.03;5071854;28;20076;-81
2021/05/03 01:00:33;;;;;;;5.82;4.57;;;;;;;6.78;59.43;100888.03;5066053;28;20471;-82
2021/05/03 01:03:00;;;;;;;5.65;4.30;;;;;;;6.77;59.92;100902.13;5064181;28;20127;-81
2021/05/03 01:05:28;;;;;;;4.72;4.22;;;;;;;6.69;60.20;100895.25;5068669;28;20072;-81
2021/05/03 01:07:57;;;;;;;7.20;4.68;;;;;;;6.74;60.02;100902.19;5070277;28;20049;-81
2021/05/03 01:10:24;;;;;;;7.97;4.15;;;;;;;6.68;59.69;100898.78;5052960;28;20079;-81
2021/05/03 01:12:52;;;;;;;4.95;4.22;;;;;;;6.67;60.19;100899.69;5066689;28;20108;-80
2021/05/03 01:15:25;;;;;;;5.63;4.30;;;;;;;6.61;60.31;100901.63;5063196;28;20051;-81
2021/05/03 01:17:58;;;;;;;4.93;4.35;;;;;;;6.55;60.14;100899.97;5057380;28;20044;-80
2021/05/03 01:20:27;;;;;;;5.80;4.43;;;;;;;6.51;60.82;100900.06;5029865;28;20051;-81
2021/05/03 01:22:57;;;;;;;5.78;4.75;;;;;;;6.44;61.27;100898.50;5071160;28;20079;-81
2021/05/03 01:25:32;;;;;;;6.65;5.15;;;;;;;6.33;61.50;100888.19;5070936;28;20041;-80
2021/05/03 01:28:00;;;;;;;8.07;5.60;;;;;;;6.42;61.49;100898.53;5047347;28;20078;-82
2021/05/03 01:30:36;;;;;;;6.88;5.50;;;;;;;6.47;61.74;100901.88;5056249;28;20099;-81
2021/05/03 01:33:06;;;;;;;6.80;5.10;;;;;;;6.50;61.95;100900.97;5052690;28;20068;-81
2021/05/03 01:35:34;;;;;;;5.65;4.80;;;;;;;6.48;62.12;100900.13;5057717;28;20064;-81
2021/05/03 01:38:01;;;;;;;7.30;5.40;;;;;;;6.43;61.91;100896.75;5055774;28;20136;-81
2021/05/03 01:40:29;;;;;;;8.80;5.18;;;;;;;6.36;61.75;100888.13;5053254;28;20056;-81
2021/05/03 01:42:56;;;;;;;7.78;4.72;;;;;;;6.37;62.13;100902.13;5058736;28;20080;-82
2021/05/03 01:45:25;;;;;;;9.55;5.50;;;;;;;6.33;62.18;100899.56;5056136;28;20052;-82
2021/05/03 01:47:53;;;;;;;7.38;5.50;;;;;;;6.24;62.02;100897.16;5039928;28;20045;-81
2021/05/03 01:50:22;;;;;;;10.18;5.78;;;;;;;6.22;62.44;100898.94;5053687;28;20052;-82
2021/05/03 01:52:49;;;;;;;6.28;4.90;;;;;;;6.23;62.03;100903.31;5056992;28;20047;-81
2021/05/03 01:55:18;;;;;;;6.40;4.57;;;;;;;6.25;61.85;100898.88;5055296;28;20100;-81
2021/05/03 01:57:45;;;;;;;8.63;5.60;;;;;;;6.31;62.01;100909.25;5054317;28;20040;-81
2021/05/03 02:00:13;;;;;;;7.28;5.53;;;;;;;6.31;62.08;100916.28;5056204;28;20135;-81
2021/05/03 02:02:46;;;;;;;6.43;5.25;;;;;;;6.30;62.31;100918.03;5054575;28;20049;-82
2021/05/03 02:05:19;;;;;;;7.03;5.50;;;;;;;6.29;62.76;100915.47;5041438;28;20144;-82
2021/05/03 02:07:53;;;;;;;8.93;5.50;;;;;;;6.26;62.77;100915.53;5055815;28;20110;-82
2021/05/03 02:10:19;;;;;;;6.65;5.25;;;;;;;6.24;62.52;100912.06;5050176;28;20046;-82
2021/05/03 02:12:48;;;;;;;6.82;5.35;;;;;;;6.28;62.73;100925.13;5051442;28;20056;-81
2021/05/03 02:15:14;;;;;;;6.30;5.13;;;;;;;6.26;62.46;100911.13;5060792;28;20620;-81
2021/05/03 02:17:42;;;;;;;6.57;5.30;;;;;;;6.26;62.93;100921.66;5056419;28;20128;-82
2021/05/03 02:20:09;;;;;;;7.47;5.82;;;;;;;6.23;63.29;100915.59;5039143;28;20069;-82
2021/05/03 02:22:35;;;;;;;5.95;5.32;;;;;;;6.17;62.71;100921.81;5053383;28;20094;-81
2021/05/03 02:25:04;;;;;;;7.38;5.70;;;;;;;6.11;62.72;100921.09;5040634;28;20100;-81
2021/05/03 02:27:30;;;;;;;8.07;5.20;;;;;;;6.08;63.30;100918.53;5058413;28;20131;-82
2021/05/03 02:29:56;;;;;;;8.63;5.13;;;;;;;6.07;62.98;100919.44;5055820;28;20104;-82
2021/05/03 02:32:23;;;;;;;8.07;4.97;;;;;;;6.03;63.09;100917.75;5057066;28;20136;-81
2021/05/03 02:34:49;;;;;;;10.15;5.35;;;;;;;5.98;63.71;100918.69;5042714;28;20052;-80
2021/05/03 02:37:16;;;;;;;9.88;5.03;;;;;;;5.96;63.11;100923.16;5062626;28;20112;-80
2021/05/03 02:39:44;;;;;;;6.05;4.78;;;;;;;5.93;64.09;100925.81;5069986;28;20051;-79
2021/05/03 02:42:10;;;;;;;6.35;5.40;;;;;;;5.86;63.64;100921.53;5066890;28;20045;-81
2021/05/03 02:44:38;;;;;;;7.25;5.35;;;;;;;5.80;64.32;100924.31;5070915;28;20108;-80
2021/05/03 02:47:08;;;;;;;9.07;6.03;;;;;;;5.75;63.82;100928.78;5067485;28;20095;-81
2021/05/03 02:49:35;;;;;;;;;;;;;;;5.73;64.49;100930.56;5068872;28;20048;-81
2021/05/03 02:52:03;;;;;;;8.15;5.43;;;;;;;5.68;64.71;100936.78;5071797;28;20003;-81
2021/05/03 02:54:30;;;;;;;8.13;5.80;;;;;;;5.64;65.26;100941.25;5064020;28;20045;-81
2021/05/03 02:56:56;;;;;;;9.00;5.78;;;;;;;5.59;65.51;100943.09;5057603;28;20052;-81
2021/05/03 02:59:22;;;;;;;7.90;6.45;;;;;;;5.60;65.27;100944.81;5073354;28;20048;-81
2021/05/03 03:01:49;;;;;;;9.27;5.97;;;;;;;5.58;65.54;100947.47;5049960;28;20064;-81
2021/05/03 03:04:17;;;;;;;7.85;5.82;;;;;;;5.59;65.95;100945.72;5080115;28;20061;-81
2021/05/03 03:06:46;;;;;;;6.07;5.47;;;;;;;5.58;65.18;100952.72;5072332;28;20067;-80
2021/05/03 03:09:12;;;;;;;7.82;5.90;;;;;;;5.55;65.53;100954.53;5093393;28;20029;-81
2021/05/03 03:11:39;;;;;;;7.05;6.00;;;;;;;5.58;65.71;100957.97;5063688;28;20136;-82
2021/05/03 03:14:05;;;;;;;8.98;5.45;;;;;;;5.59;65.51;100953.59;5056029;28;20188;-82
2021/05/03 03:16:31;;;;;;;8.77;5.47;;;;;;;5.63;65.67;100952.66;5056625;28;20103;-82
2021/05/03 03:18:59;;;;;;;11.07;6.03;;;;;;;5.64;65.29;100952.63;5043635;28;20049;-82
2021/05/03 03:21:25;;;;;;;7.63;5.72;;;;;;;5.61;65.54;100946.56;5057040;28;20135;-81
2021/05/03 03:23:51;;;;;;;8.18;5.05;;;;;;;5.62;65.86;100953.53;5057062;28;20083;-82
2021/05/03 03:26:18;;;;;;;9.57;5.57;;;;;;;5.61;65.82;100942.16;5056512;28;20069;-82
2021/05/03 03:28:44;;;;;;;8.57;5.97;;;;;;;5.58;65.44;100947.47;5060944;28;20071;-80
2021/05/03 03:31:13;;;;;;;7.88;6.10;;;;;;;5.58;65.57;100957.97;5061809;28;20036;-81
2021/05/03 03:33:39;;;;;;;6.25;5.38;;;;;;;5.54;65.85;100950.16;5069191;28;20045;-81
2021/05/03 03:36:06;;;;;;;7.90;5.70;;;;;;;5.52;66.59;100957.19;5065176;28;20037;-81
2021/05/03 03:38:34;;;;;;;6.80;6.05;;;;;;;5.51;66.61;100966.00;5055995;28;20067;-81
2021/05/03 03:41:00;;;;;;;8.32;6.10;;;;;;;5.49;66.67;100962.53;5059401;28;20112;-81
2021/05/03 03:43:27;;;;;;;7.47;6.22;;;;;;;5.47;66.95;100972.19;5070758;28;20068;-81
2021/05/03 03:45:54;;;;;;;8.32;6.20;;;;;;;5.45;66.57;100971.34;5070791;28;20045;-80
2021/05/03 03:48:20;;;;;;;8.23;6.05;;;;;;;5.48;67.03;100971.31;5063241;28;20069;-82
2021/05/03 03:50:46;;;;;;;8.63;6.45;;;;;;;5.39;67.02;100963.56;5067028;28;20079;-81
2021/05/03 03:53:13;;;;;;;11.88;6.82;;;;;;;5.41;68.00;100981.03;5071795;28;20462;-82
2021/05/03 03:55:39;;;;;;;7.53;6.72;;;;;;;5.39;67.64;100982.81;5070957;28;20056;-81
2021/05/03 03:58:06;;;;;;;9.85;7.03;;;;;;;5.38;67.63;100982.84;5073440;28;20049;-81
2021/05/03 04:00:32;;;;;;;7.57;6.63;;;;;;;5.35;67.96;100975.03;5053228;28;20117;-81
2021/05/03 04:03:00;;;;;;;9.80;6.90;;;;;;;5.33;67.69;100977.69;5075098;28;20143;-81
2021/05/03 04:26:12;;;;;;;9.70;7.18;;;;;;;5.61;66.84;100996.47;5071771;28;20053;-81
2021/05/03 04:28:46;;;;;;;9.70;7.53;;;;;;;5.63;67.09;100992.06;5070801;28;20037;-81
2021/05/03 04:31:13;;;;;;;10.68;7.78;;;;;;;5.60;67.20;100987.72;5073633;28;20035;-81
2021/05/03 04:33:42;;;;;;;10.65;7.78;;;;;;;5.55;67.41;100983.44;5072291;28;20068;-78
2021/05/03 04:36:08;;;;;;;10.68;8.07;;;;;;;5.57;67.67;100994.78;5073945;28;20379;-79
2021/05/03 04:38:35;;;;;;;9.02;7.60;;;;;;;5.56;67.76;100995.66;5056335;28;20510;-80
2021/05/03 04:41:01;;;;;;;11.93;8.15;;;;;;;5.62;67.43;100998.19;5066799;28;20069;-80
2021/05/03 04:43:28;;;;;;;9.10;7.78;;;;;;;5.63;66.94;100994.69;5061211;28;20052;-81
2021/05/03 04:45:54;;;;;;;10.13;7.90;;;;;;;5.60;67.42;100998.22;5055174;28;20446;-81
2021/05/03 04:48:20;;;;;;;9.65;8.30;;;;;;;5.52;67.72;100976.47;5054618;28;20448;-79
2021/05/03 04:50:49;;;;;;;8.77;7.85;;;;;;;5.62;67.90;100993.81;5053976;28;20051;-81
2021/05/03 04:53:15;;;;;;;11.50;7.75;;;;;;;5.64;67.94;100991.16;5055587;28;20075;-82
2021/05/03 04:55:41;;;;;;;9.75;7.85;;;;;;;5.69;67.62;100991.94;5056265;28;20067;-81
2021/05/03 04:58:08;;;;;;;9.18;7.80;;;;;;;5.78;67.42;100997.03;5053799;28;20053;-81
2021/05/03 05:00:34;;;;;;;13.07;8.05;;;;;;;5.86;66.94;100999.53;5056320;28;20495;-80
2021/05/03 05:03:01;;;;;;;12.90;8.10;;;;;;;5.89;66.62;100996.88;5052833;28;20144;-81
2021/05/03 05:05:28;;;;;;;9.00;7.60;;;;;;;5.87;67.23;101010.00;5055170;28;20045;-81
2021/05/03 05:07:55;;;;;;;10.52;7.90;;;;;;;5.91;66.99;101010.88;5060106;28;20057;-81
2021/05/03 05:10:22;;;;;;;9.45;8.00;;;;;;;5.90;66.34;101009.13;5057590;28;20765;-81
2021/05/03 05:12:49;;;;;;;8.57;7.47;;;;;;;5.91;66.42;101014.34;5057327;28;20073;-81
2021/05/03 05:15:17;;;;;;;14.13;8.40;;;;;;;5.88;66.62;101014.41;5058210;28;20060;-81
2021/05/03 05:17:46;;;;;;;11.63;8.65;;;;;;;5.85;67.29;101014.41;5057353;28;20052;-81
2021/05/03 05:20:12;;;;;;;9.55;8.10;;;;;;;5.78;66.39;101012.81;5058763;28;20049;-83
2021/05/03 05:22:40;;;;;;;14.98;8.90;;;;;;;5.69;67.83;101007.69;5055964;28;20041;-83
2021/05/03 05:25:09;;;;;;;10.57;8.05;;;;;;;5.74;68.11;101010.25;5052667;28;20111;-81
2021/05/03 05:27:35;;;;;;;9.70;7.88;;;;;;;5.80;67.44;101016.28;5057499;28;20044;-82
2021/05/03 05:30:03;;;;;;;10.15;8.15;;;;;;;5.90;67.79;101012.63;5061267;28;20053;-82
2021/05/03 05:32:29;;;;;;;11.10;8.48;;;;;;;6.01;66.38;101029.94;5074138;28;20025;-81
2021/05/03 05:34:56;;;;;;;10.35;8.60;;;;;;;6.02;66.90;101029.06;5074121;28;20069;-81
2021/05/03 05:37:22;;;;;;;11.52;8.50;;;;;;;6.02;66.42;101027.28;5077658;28;20073;-81
2021/05/03 05:39:49;;;;;;;10.20;8.25;;;;;;;6.02;66.27;101027.28;5074517;28;20021;-80
2021/05/03 05:42:15;;;;;;;12.05;8.80;;;;;;;6.05;66.23;101026.38;5075549;28;20120;-81
2021/05/03 05:44:43;;;;;;;10.80;8.23;;;;;;;6.06;66.57;101036.88;5072898;28;20055;-80
2021/05/03 05:47:09;;;;;;;11.32;8.52;;;;;;;6.10;66.16;101033.28;5071968;28;20060;-81
2021/05/03 05:49:36;;;;;;;12.55;8.50;;;;;;;6.16;66.01;101040.19;5073880;28;20049;-80
2021/05/03 05:52:03;;;;;;;12.68;9.40;;;;;;;6.26;67.12;101034.75;5073595;28;20017;-82
2021/05/03 05:54:29;;;;;;;11.20;8.23;;;;;;;6.44;66.07;101037.91;5079536;28;20072;-81
2021/05/03 05:56:55;;;;;;;11.93;8.75;;;;;;;6.59;65.64;101035.84;5073071;28;20053;-82
2021/05/03 05:59:23;;;;;;;10.80;8.68;;;;;;;6.72;64.82;101043.47;5071201;28;20048;-82
2021/05/03 06:01:53;;;;;;;9.13;8.25;;;;;;;6.84;65.27;101033.56;5066826;28;20037;-82
2021/05/03 06:04:22;;;;;;;18.00;9.55;;;;;;;6.94;64.71;101039.47;5070665;28;20081;-81
2021/05/03 06:06:48;;;;;;;14.43;9.50;;;;;;;7.01;63.77;101041.94;5073712;28;20045;-81
2021/05/03 06:09:17;;;;;;;16.95;11.63;;;;;;;7.13;63.96;101042.56;5076061;28;20052;-81
2021/05/03 06:11:44;;;;;;;14.18;9.18;;;;;;;7.29;63.53;101031.66;5069504;28;20060;-78
2021/05/03 06:14:11;;;;;;;17.30;9.88;;;;;;;7.58;62.94;101033.59;5070427;28;20029;-80
2021/05/03 06:16:37;;;;;;;13.07;9.43;;;;;;;9.39;57.28;101032.91;5069420;28;20052;-80
2021/05/03 06:19:03;;;;;;;10.98;8.50;;;;;;;11.77;50.81;101032.97;5078395;28;20120;-80
2021/05/03 06:21:30;;;;;;;13.23;7.30;;;;;;;14.03;44.77;101029.50;5093950;28;20045;-80
2021/05/03 06:23:56;;;;;;;14.43;7.38;;;;;;;15.37;39.85;101028.47;5094467;28;20053;-80
2021/05/03 06:26:22;;;;;;;8.32;6.03;;;;;;;16.34;38.03;101024.56;5075761;28;20056;-81
2021/05/03 06:28:52;;;;;;;7.43;5.82;;;;;;;17.73;36.19;101026.41;5071652;28;20079;-82
2021/05/03 06:31:20;;;;;;;15.98;5.90;;;;;;;19.04;32.66;101031.56;5076664;28;20048;-81
2021/05/03 06:33:47;;;;;;;10.18;6.15;;;;;;;19.08;31.13;101027.69;5074140;28;20047;-82
2021/05/03 06:36:14;;;;;;;18.77;6.43;;;;;;;18.53;31.49;101034.28;5077047;28;20033;-81
2021/05/03 06:38:41;;;;;;;9.82;6.03;;;;;;;18.39;31.75;101045.09;5077230;28;20025;-80
2021/05/03 06:41:15;;;;;;;14.05;6.70;;;;;;;18.64;31.57;101030.84;5075098;28;20049;-80
2021/05/03 06:43:41;;;;;;;10.93;6.13;;;;;;;19.16;32.61;101036.06;5071459;28;20049;-83
2021/05/03 06:46:07;;;;;;;7.85;5.72;;;;;;;19.91;30.98;101025.97;5075992;28;20035;-81
2021/05/03 06:48:34;;;;;;;6.72;5.55;;;;;;;20.48;30.20;101030.56;5071338;28;20109;-82
2021/05/03 06:51:01;;;;;;;6.82;5.53;;;;;;;20.87;28.62;101026.56;5071676;28;20053;-81
2021/05/03 06:53:29;;;;;;;7.18;4.75;;;;;;;21.48;26.95;101028.81;5070078;28;20037;-81
2021/05/03 06:55:55;;;;;;;6.28;5.03;;;;;;;21.99;26.15;101024.50;5074912;28;20041;-81
2021/05/03 06:58:21;;;;;;;5.30;4.80;;;;;;;22.21;25.57;101038.84;5072322;28;20045;-82
2021/05/03 07:00:48;;;;;;;5.35;4.60;;;;;;;22.51;25.61;101033.50;5056569;28;20049;-81
2021/05/03 07:03:14;;;;;;;5.80;5.00;;;;;;;22.69;24.76;101037.31;5072619;28;20041;-81
2021/05/03 07:05:40;;;;;;;8.00;5.10;;;;;;;22.56;24.57;101041.22;5069483;28;20112;-81
2021/05/03 07:08:11;;;;;;;6.88;5.18;;;;;;;22.05;25.00;101040.16;5071249;28;20044;-81
2021/05/03 07:10:41;;;;;;;7.50;4.53;;;;;;;22.09;25.24;101034.50;5070896;28;20064;-81
2021/05/03 07:13:08;;;;;;;5.57;4.82;;;;;;;22.59;24.01;101039.09;5069666;28;20037;-81
2021/05/03 07:15:36;;;;;;;5.90;5.13;;;;;;;23.02;24.34;101032.66;5074498;28;20064;-81
2021/05/03 07:18:04;;;;;;;6.55;4.80;;;;;;;22.52;23.74;101037.06;5086649;28;20043;-81
2021/05/03 07:20:30;;;;;;;6.50;5.18;;;;;;;22.64;24.44;101036.88;5069824;28;20063;-81
2021/05/03 07:22:56;;;;;;;5.82;4.50;;;;;;;23.06;23.61;101026.00;5072513;28;20080;-81
2021/05/03 07:25:23;;;;;;;9.73;4.95;;;;;;;23.34;23.66;101018.94;5066192;28;20045;-81
2021/05/03 07:27:50;;;;;;;8.07;4.65;;;;;;;22.77;23.50;101022.31;5034711;28;20061;-81
2021/05/03 07:30:16;;;;;;;6.18;4.60;;;;;;;22.61;24.20;101020.94;5067012;28;20045;-81
2021/05/03 07:32:43;;;;;;;8.57;5.05;;;;;;;22.71;24.52;101020.97;5066054;28;20041;-81
2021/05/03 07:35:11;;;;;;;7.55;4.68;;;;;;;22.89;23.60;101021.22;5068230;28;20144;-81
2021/05/03 07:37:39;;;;;;;5.07;4.38;;;;;;;22.43;24.65;101025.22;5066454;28;20037;-81
2021/05/03 07:40:07;;;;;;;5.32;4.45;;;;;;;22.32;24.87;101026.16;5068475;28;20072;-82
2021/05/03 07:42:33;;;;;;;6.55;5.07;;;;;;;21.24;26.29;101020.94;5073055;28;20068;-82
2021/05/03 07:45:08;;;;;;;4.70;3.83;;;;;;;21.52;26.99;101024.91;5080864;28;20037;-82
2021/05/03 07:47:34;;;;;;;6.45;4.55;;;;;;;21.52;28.08;101024.91;5078026;28;20109;-81
2021/05/03 07:50:00;;;;;;;8.07;5.20;;;;;;;21.03;25.88;101023.50;5070353;28;20033;-82
2021/05/03 07:52:30;;;;;;;5.63;5.03;;;;;;;19.95;27.63;101030.16;5076869;28;20055;-81
2021/05/03 07:54:56;;;;;;;7.00;5.22;;;;;;;19.95;27.73;101018.56;5075815;28;20045;-82
2021/05/03 07:57:24;;;;;;;6.38;4.88;;;;;;;20.45;27.31;101005.75;5072978;28;20036;-81
2021/05/03 07:59:50;;;;;;;5.32;4.22;;;;;;;21.18;25.70;101014.16;5054548;28;20049;-82
2021/05/03 08:02:20;;;;;;;4.80;4.30;;;;;;;21.70;24.40;101010.75;5071463;28;20102;-82
2021/05/03 08:04:48;;;;;;;6.90;4.60;;;;;;;21.64;24.15;101015.78;5072325;28;20037;-82
2021/05/03 08:07:16;;;;;;;5.68;4.43;;;;;;;21.33;24.59;101014.78;5067682;28;20328;-81
2021/05/03 08:09:44;;;;;;;6.68;4.03;;;;;;;20.65;25.34;101010.38;5064589;28;20059;-82
2021/05/03 08:12:10;;;;;;;6.78;4.40;;;;;;;19.87;26.42;101023.63;5062380;28;20028;-81
2021/05/03 08:14:37;;;;;;;7.97;5.00;;;;;;;19.27;27.06;101009.25;5063211;28;20118;-81
2021/05/03 08:17:07;;;;;;;6.93;4.47;;;;;;;19.17;26.92;101010.91;5041159;28;20079;-83
2021/05/03 08:19:35;;;;;;;9.25;4.70;;;;;;;19.63;27.26;101010.22;5028862;28;20049;-82
2021/05/03 08:22:03;;;;;;;8.30;4.82;;;;;;;19.01;27.81;101007.63;5060063;28;20052;-82
2021/05/03 08:24:32;;;;;;;5.75;4.35;;;;;;;17.90;29.37;101014.56;5059309;28;20127;-81
2021/05/03 08:26:59;;;;;;;5.05;4.20;;;;;;;17.58;31.01;101024.72;5050945;28;20053;-80
2021/05/03 08:29:29;;;;;;;5.35;4.53;;;;;;;17.48;30.66;101017.28;5061383;28;20048;-80
2021/05/03 08:31:57;;;;;;;6.95;4.85;;;;;;;17.21;30.63;101004.84;5065598;28;20160;-80
2021/05/03 08:34:24;;;;;;;5.40;3.97;;;;;;;16.90;31.41;101014.84;5043986;28;20059;-81
2021/05/03 08:36:53;;;;;;;5.95;4.70;;;;;;;16.32;32.49;101010.41;5060718;28;20045;-81
2021/05/03 08:39:26;;;;;;;5.82;4.13;;;;;;;16.07;32.57;101018.19;5056637;28;20049;-81
2021/05/03 08:41:58;;;;;;;5.97;3.95;;;;;;;15.83;32.75;101012.50;5047745;28;20044;-83
2021/05/03 08:44:27;;;;;;;9.18;4.22;;;;;;;15.61;32.51;101017.34;5067642;28;20113;-82
2021/05/03 08:46:56;;;;;;;7.80;3.83;;;;;;;15.41;32.86;101015.81;5056239;28;20072;-82
2021/05/03 08:49:51;;;;;;;5.45;3.85;;;;;;;15.29;32.68;101016.50;5072392;28;20115;-81
2021/05/03 08:52:24;;;;;;;7.95;4.07;;;;;;;14.98;32.69;101012.88;5072855;28;20036;-82
2021/05/03 08:54:52;;;;;;;6.32;4.28;;;;;;;14.74;33.56;101011.56;5055336;28;20057;-83
2021/05/03 08:57:18;;;;;;;5.82;4.95;;;;;;;14.34;34.20;101000.34;5071880;28;20036;-82
2021/05/03 08:59:45;;;;;;;6.55;4.72;;;;;;;13.96;35.38;101010.34;5074352;28;20064;-82
2021/05/03 09:02:16;;;;;;;5.80;4.93;;;;;;;13.90;36.80;101012.44;5072299;28;20048;-80
2021/05/03 09:04:45;;;;;;;6.97;5.47;;;;;;;13.89;36.89;101005.38;5062462;28;20042;-80
2021/05/03 09:07:14;;;;;;;8.43;5.28;;;;;;;13.77;36.36;101003.34;5054530;28;20053;-79
2021/05/03 09:09:46;;;;;;;6.50;4.57;;;;;;;13.69;35.88;101001.94;5074946;28;20033;-82
2021/05/03 09:12:14;;;;;;;7.57;4.80;;;;;;;13.77;37.28;100998.03;5068631;28;20071;-81
2021/05/03 09:14:51;;;;;;;8.60;5.88;;;;;;;13.78;37.11;100999.75;5070814;28;20459;-82
2021/05/03 09:17:41;;;;;;;6.28;4.80;;;;;;;13.77;37.49;100990.03;5055057;28;20059;-82
2021/05/03 09:20:16;;;;;;;5.80;4.45;;;;;;;13.80;36.89;100988.09;5048291;28;20053;-82
2021/05/03 09:22:55;;;;;;;6.32;5.43;;;;;;;13.67;36.83;100989.66;5074015;28;20037;-83
2021/05/03 09:25:37;;;;;;;6.88;5.30;;;;;;;13.52;37.85;100991.28;5076765;28;20045;-81
2021/05/03 09:28:07;;;;;;;6.03;4.88;;;;;;;13.40;36.87;100980.38;5073558;28;20041;-82
2021/05/03 09:30:35;;;;;;;;;;;;;;;13.36;36.73;100984.13;5064544;28;20072;-81
2021/05/03 09:33:22;;;;;;;7.25;5.35;;;;;;;13.49;37.29;100982.59;5049134;28;19920;-82
2021/05/03 09:35:51;;;;;;;8.57;5.25;;;;;;;13.56;37.54;100968.03;5057051;28;20110;-82
2021/05/03 09:38:38;;;;;;;7.38;4.90;;;;;;;13.74;36.45;100969.75;5057295;28;20131;-83
2021/05/03 09:41:22;;;;;;;5.90;4.63;;;;;;;13.72;36.34;100965.44;5038652;28;20136;-83
2021/05/03 09:43:54;;;;;;;8.55;4.53;;;;;;;13.69;35.76;100972.66;5059988;28;20072;-83
2021/05/03 09:46:37;;;;;;;7.82;4.72;;;;;;;13.74;35.40;100960.91;5057525;28;20049;-83
2021/05/03 09:49:11;;;;;;;7.15;4.95;;;;;;;13.68;35.70;100949.66;5057782;28;20053;-82
2021/05/03 09:51:58;;;;;;;9.05;5.05;;;;;;;13.69;35.70;100954.03;5066440;28;20048;-82
2021/05/03 09:54:27;;;;;;;7.40;4.53;;;;;;;13.81;34.93;100949.03;5070323;28;20041;-82
2021/05/03 09:57:03;;;;;;;6.00;3.78;;;;;;;13.90;34.86;100935.22;5075963;28;20037;-82
2021/05/03 09:59:39;;;;;;;6.65;4.97;;;;;;;14.04;34.29;100938.88;5072274;28;20033;-83
2021/05/03 10:02:25;;;;;;;8.60;5.18;;;;;;;14.21;34.53;100935.34;5088036;28;20127;-83
2021/05/03 10:05:20;;;;;;;5.95;4.90;;;;;;;14.23;34.03;100933.44;5063692;28;20052;-82
2021/05/03 10:07:54;;;;;;;6.15;4.57;;;;;;;14.42;34.20;100936.03;5049960;28;20097;-83
2021/05/03 10:10:24;;;;;;;4.18;3.78;;;;;;;14.52;32.32;100936.38;5066566;28;20029;-83
2021/05/03 10:12:53;;;;;;;5.47;3.88;;;;;;;14.63;31.80;100931.34;5067142;28;20055;-82
2021/05/03 10:15:20;;;;;;;6.28;4.50;;;;;;;14.65;32.25;100924.09;5060603;28;20064;-83
2021/05/03 10:17:47;;;;;;;6.50;4.07;;;;;;;14.71;32.19;100913.09;5062223;28;20144;-82
2021/05/03 10:20:17;;;;;;;6.72;4.68;;;;;;;14.80;30.68;100938.38;5059502;28;20056;-83
2021/05/03 10:23:01;;;;;;;6.65;4.35;;;;;;;14.77;31.33;100917.25;5060807;28;20156;-82
2021/05/03 10:25:27;;;;;;;5.97;4.57;;;;;;;14.80;31.84;100920.56;5052659;28;20045;-82
2021/05/03 10:27:53;;;;;;;5.70;4.40;;;;;;;14.83;30.99;100917.72;5049645;28;20133;-82
2021/05/03 10:30:22;;;;;;;6.78;3.67;;;;;;;14.91;29.83;100915.50;5070567;28;20075;-82
2021/05/03 10:32:58;;;;;;;6.57;3.70;;;;;;;15.08;30.25;100904.75;5067865;28;20048;-82
2021/05/03 10:35:32;;;;;;;7.18;4.57;;;;;;;15.08;31.50;100907.41;5071654;28;20044;-82
2021/05/03 10:37:59;;;;;;;8.52;5.07;;;;;;;15.05;31.09;100901.38;5067962;28;20377;-81
2021/05/03 10:40:28;;;;;;;6.15;4.63;;;;;;;15.00;31.02;100909.66;5071465;28;20057;-83
2021/05/03 10:43:09;;;;;;;5.80;4.13;;;;;;;14.98;30.44;100906.19;5062649;28;20051;-83
2021/05/03 10:54:24;;;;;;;4.63;2.45;;;;;;;15.56;26.94;100881.50;5070496;28;20073;-81
2021/05/03 10:56:55;;;;;;;4.68;2.67;;;;;;;15.65;26.19;100872.06;5067208;28;20063;-80
2021/05/03 10:59:22;;;;;;;5.63;3.40;;;;;;;15.77;27.27;100857.97;5061869;28;20049;-82
2021/05/03 11:01:59;;;;;;;5.13;3.92;;;;;;;15.63;28.18;100864.16;5064020;28;20140;-82
2021/05/03 11:04:30;;;;;;;7.15;3.83;;;;;;;15.65;28.79;100859.59;5069385;28;20049;-80
2021/05/03 11:06:56;;;;;;;3.58;3.25;;;;;;;15.90;27.71;100847.41;5065486;28;20120;-81
2021/05/03 11:09:25;;;;;;;3.90;3.08;;;;;;;15.81;26.65;100845.28;5046142;28;20055;-81
2021/05/03 11:11:52;;;;;;;4.75;3.55;;;;;;;15.85;26.63;100845.03;5046031;28;20052;-83
2021/05/03 11:14:21;;;;;;;4.15;3.22;;;;;;;15.87;26.65;100847.59;5046332;28;20111;-81
2021/05/03 11:16:50;;;;;;;6.32;3.47;;;;;;;15.68;27.46;100843.38;5073354;28;20071;-82
2021/05/03 11:22:24;;;;;;;6.25;3.63;;;;;;;15.66;28.00;100837.28;5058754;28;20109;-82
2021/05/03 11:25:04;;;;;;;6.93;4.32;;;;;;;15.62;28.22;100821.53;5060871;28;20049;-81
2021/05/03 11:33:18;;;;;;;7.70;3.83;;;;;;;16.23;28.35;100821.22;5068761;28;20040;-80
2021/05/03 11:41:12;;;;;;;5.55;3.58;;;;;;;16.50;26.66;100810.59;5070866;28;20128;-80
2021/05/03 11:43:54;;;;;;;4.90;3.53;;;;;;;16.24;27.35;100804.25;5072445;28;20051;-81
2021/05/03 11:46:33;;;;;;;5.55;3.88;;;;;;;16.11;27.44;100800.63;5072430;28;20033;-80
2021/05/03 11:49:22;;;;;;;6.40;3.33;;;;;;;16.39;26.11;100802.41;5059026;28;20063;-80
2021/05/03 11:52:00;;;;;;;3.70;2.85;;;;;;;16.81;25.85;100807.66;5074697;28;20032;-83
2021/05/03 11:54:41;;;;;;;3.92;2.90;;;;;;;17.26;26.24;100793.97;5057351;28;20049;-80
2021/05/03 11:57:15;;;;;;;6.40;3.80;;;;;;;17.47;26.02;100782.63;5075330;28;20059;-81
2021/05/03 11:59:44;;;;;;;4.75;3.13;;;;;;;17.57;26.46;100790.03;5073139;28;20040;-82
2021/05/03 12:02:14;;;;;;;6.13;3.33;;;;;;;17.68;26.88;100793.69;5066825;28;20057;-81
2021/05/03 12:04:46;;;;;;;6.95;4.15;;;;;;;17.46;26.80;100790.78;5081396;28;20043;-81
2021/05/03 12:07:32;;;;;;;4.60;3.97;;;;;;;17.29;27.86;100789.25;5077748;28;20052;-80
2021/05/03 12:10:30;;;;;;;5.65;3.90;;;;;;;17.43;27.49;100780.28;5056703;28;20081;-81
2021/05/03 12:12:57;;;;;;;5.18;3.72;;;;;;;17.21;27.83;100762.16;5034701;28;20052;-82
2021/05/03 12:15:26;;;;;;;4.15;3.42;;;;;;;16.94;28.23;100764.91;5058209;28;20952;-82
2021/05/03 12:17:54;;;;;;;5.00;3.22;;;;;;;16.74;28.63;100768.91;5069788;28;20065;-82
2021/05/03 12:20:22;;;;;;;4.00;3.60;;;;;;;16.87;28.14;100776.94;5063662;28;20052;-83
2021/05/03 12:22:52;;;;;;;5.25;4.13;;;;;;;16.95;28.35;100773.78;5059251;28;20049;-81